Portada
METAR-TAF:

METAR-TAF

Aeroports :

Gibraltar, Gibraltar

latitud: 36-09N, longitud: 005-21W, altitud: 5 m

Observació

L'informe es va fer fa 1 hora i 19 minuts, a les 00:50 UTC
Vent 21 kt del Est
Temperatura 14°C
Humitat 63%
Pressió 1005 hPa
Visibilitat 10 km o més

METAR: LXGB 240050Z AUTO 09021KT 9999 // FEW041/// 14/07 Q1005

Hora: 03:09 (02:09 UTC)

Pronòstic

L'informe es va fer fa 9 hores i 51 minuts, a les 16:18 UTC
Pronòstic vàlid del 23 a les 18 UTC al 23 a les 22 UTC
Vent 12 kt del Est
Visibilitat 10 km o més
Núvols disperses a una alçada de 3000 ft

TAF: LXGB 231618Z 2318/2322 09012KT 9999 SCT030

Observacions i pronòstics meteorològics de més de 4000 aeroports (METAR i TAF).

Les estacions disponibles són els punts grocs i vermells al mapa.

Posi el ratolí al punt desitjat per veure el nom de l'estació.

Feu clic per veure les observacions i els pronòstics meteorològics.

Per canviar el mapa: feu clic els botons verds amb una creu de color negre per apropar; al botó verd amb un guió per allunyar la imatge; o en les fletxes verdes per a mapes adjacents.


METAR-TAF: